sensor_id;sensor_type;location;lat;lon;timestamp;pressure;altitude;pressure_sealevel;temperature
69186;BMP280;56298;49.246;9.410;2023-03-23T00:01:20;98804.50;;;13.84
69186;BMP280;56298;49.246;9.410;2023-03-23T00:03:50;98803.31;;;13.99
69186;BMP280;56298;49.246;9.410;2023-03-23T00:06:18;98801.78;;;14.09
69186;BMP280;56298;49.246;9.410;2023-03-23T00:08:45;98802.53;;;14.13
69186;BMP280;56298;49.246;9.410;2023-03-23T00:11:12;98800.56;;;14.17
69186;BMP280;56298;49.246;9.410;2023-03-23T00:13:40;98796.25;;;14.23
69186;BMP280;56298;49.246;9.410;2023-03-23T00:16:06;98793.88;;;14.25
69186;BMP280;56298;49.246;9.410;2023-03-23T00:18:46;98797.81;;;14.32
69186;BMP280;56298;49.246;9.410;2023-03-23T00:21:12;98797.84;;;14.35
69186;BMP280;56298;49.246;9.410;2023-03-23T00:23:38;98800.19;;;14.41
69186;BMP280;56298;49.246;9.410;2023-03-23T00:26:04;98793.88;;;14.47
69186;BMP280;56298;49.246;9.410;2023-03-23T00:28:29;98807.69;;;14.47
69186;BMP280;56298;49.246;9.410;2023-03-23T00:30:56;98803.31;;;14.50
69186;BMP280;56298;49.246;9.410;2023-03-23T00:33:23;98800.94;;;14.52
69186;BMP280;56298;49.246;9.410;2023-03-23T00:35:49;98801.38;;;14.54
69186;BMP280;56298;49.246;9.410;2023-03-23T00:38:18;98789.50;;;14.64
69186;BMP280;56298;49.246;9.410;2023-03-23T00:40:44;98792.28;;;14.64
69186;BMP280;56298;49.246;9.410;2023-03-23T00:43:09;98794.63;;;14.59
69186;BMP280;56298;49.246;9.410;2023-03-23T00:45:38;98790.69;;;14.60
69186;BMP280;56298;49.246;9.410;2023-03-23T00:48:04;98782.03;;;14.58
69186;BMP280;56298;49.246;9.410;2023-03-23T00:50:30;98778.88;;;14.56
69186;BMP280;56298;49.246;9.410;2023-03-23T00:52:56;98769.41;;;14.60
69186;BMP280;56298;49.246;9.410;2023-03-23T00:55:22;98767.84;;;14.59
69186;BMP280;56298;49.246;9.410;2023-03-23T00:57:47;98769.41;;;14.60
69186;BMP280;56298;49.246;9.410;2023-03-23T01:00:15;98761.91;;;14.57
69186;BMP280;56298;49.246;9.410;2023-03-23T01:02:41;98767.00;;;14.62
69186;BMP280;56298;49.246;9.410;2023-03-23T01:05:09;98758.00;;;14.58
69186;BMP280;56298;49.246;9.410;2023-03-23T01:07:35;98754.47;;;14.54
69186;BMP280;56298;49.246;9.410;2023-03-23T01:10:00;98746.19;;;14.54
69186;BMP280;56298;49.246;9.410;2023-03-23T01:12:25;98750.09;;;14.60
69186;BMP280;56298;49.246;9.410;2023-03-23T01:14:51;98742.19;;;14.62
69186;BMP280;56298;49.246;9.410;2023-03-23T01:17:16;98736.69;;;14.55
69186;BMP280;56298;49.246;9.410;2023-03-23T01:19:41;98742.63;;;14.53
69186;BMP280;56298;49.246;9.410;2023-03-23T01:22:07;98733.97;;;14.51
69186;BMP280;56298;49.246;9.410;2023-03-23T01:24:32;98743.81;;;14.52
69186;BMP280;56298;49.246;9.410;2023-03-23T01:26:58;98741.81;;;14.49
69186;BMP280;56298;49.246;9.410;2023-03-23T01:29:26;98734.75;;;14.52
69186;BMP280;56298;49.246;9.410;2023-03-23T01:31:52;98720.94;;;14.56
69186;BMP280;56298;49.246;9.410;2023-03-23T01:34:17;98731.59;;;14.53
69186;BMP280;56298;49.246;9.410;2023-03-23T01:36:42;98721.75;;;14.52
69186;BMP280;56298;49.246;9.410;2023-03-23T01:39:07;98717.00;;;14.57
69186;BMP280;56298;49.246;9.410;2023-03-23T01:41:34;98708.31;;;14.54
69186;BMP280;56298;49.246;9.410;2023-03-23T01:44:58;98714.25;;;14.57
69186;BMP280;56298;49.246;9.410;2023-03-23T01:46:52;98705.97;;;14.53
69186;BMP280;56298;49.246;9.410;2023-03-23T01:49:24;98704.41;;;14.48
69186;BMP280;56298;49.246;9.410;2023-03-23T01:51:54;98703.63;;;14.48
69186;BMP280;56298;49.246;9.410;2023-03-23T01:54:22;98700.09;;;14.47
69186;BMP280;56298;49.246;9.410;2023-03-23T01:56:57;98706.00;;;14.46
69186;BMP280;56298;49.246;9.410;2023-03-23T01:59:24;98701.25;;;14.50
69186;BMP280;56298;49.246;9.410;2023-03-23T02:01:51;98703.63;;;14.51
69186;BMP280;56298;49.246;9.410;2023-03-23T02:04:18;98707.94;;;14.49
69186;BMP280;56298;49.246;9.410;2023-03-23T02:06:44;98707.94;;;14.52
69186;BMP280;56298;49.246;9.410;2023-03-23T02:09:11;98702.81;;;14.51
69186;BMP280;56298;49.246;9.410;2023-03-23T02:11:38;98705.97;;;14.57
69186;BMP280;56298;49.246;9.410;2023-03-23T02:14:04;98705.16;;;14.60
69186;BMP280;56298;49.246;9.410;2023-03-23T02:30:45;98679.59;;;14.45
69186;BMP280;56298;49.246;9.410;2023-03-23T02:35:47;98674.47;;;14.43
69186;BMP280;56298;49.246;9.410;2023-03-23T02:38:20;98674.47;;;14.43
69186;BMP280;56298;49.246;9.410;2023-03-23T02:40:48;98663.03;;;14.45
69186;BMP280;56298;49.246;9.410;2023-03-23T02:43:17;98656.34;;;14.46
69186;BMP280;56298;49.246;9.410;2023-03-23T02:45:46;98654.78;;;14.45
69186;BMP280;56298;49.246;9.410;2023-03-23T02:48:13;98651.25;;;14.41
69186;BMP280;56298;49.246;9.410;2023-03-23T02:50:42;98642.16;;;14.47
69186;BMP280;56298;49.246;9.410;2023-03-23T02:53:10;98648.41;;;14.55
69186;BMP280;56298;49.246;9.410;2023-03-23T02:55:40;98645.66;;;14.55
69186;BMP280;56298;49.246;9.410;2023-03-23T02:58:11;98648.41;;;14.59
69186;BMP280;56298;49.246;9.410;2023-03-23T03:00:37;98640.09;;;14.62
69186;BMP280;56298;49.246;9.410;2023-03-23T03:03:03;98644.06;;;14.65
69186;BMP280;56298;49.246;9.410;2023-03-23T03:05:42;98649.94;;;14.71
69186;BMP280;56298;49.246;9.410;2023-03-23T03:08:21;98643.63;;;14.70
69186;BMP280;56298;49.246;9.410;2023-03-23T03:11:07;98644.06;;;14.65
69186;BMP280;56298;49.246;9.410;2023-03-23T03:16:42;98640.47;;;14.68
69186;BMP280;56298;49.246;9.410;2023-03-23T03:19:16;98630.59;;;14.71
69186;BMP280;56298;49.246;9.410;2023-03-23T03:21:46;98631.03;;;14.65
69186;BMP280;56298;49.246;9.410;2023-03-23T03:24:15;98623.91;;;14.72
69186;BMP280;56298;49.246;9.410;2023-03-23T03:26:47;98632.97;;;14.72
69186;BMP280;56298;49.246;9.410;2023-03-23T03:29:19;98629.81;;;14.74
69186;BMP280;56298;49.246;9.410;2023-03-23T03:31:46;98626.25;;;14.73
69186;BMP280;56298;49.246;9.410;2023-03-23T03:34:14;98632.59;;;14.70
69186;BMP280;56298;49.246;9.410;2023-03-23T03:36:43;98635.69;;;14.79
69186;BMP280;56298;49.246;9.410;2023-03-23T03:39:11;98635.75;;;14.72
69186;BMP280;56298;49.246;9.410;2023-03-23T03:41:38;98634.56;;;14.70
69186;BMP280;56298;49.246;9.410;2023-03-23T03:44:05;98638.44;;;14.83
69186;BMP280;56298;49.246;9.410;2023-03-23T03:46:31;98638.44;;;14.83
69186;BMP280;56298;49.246;9.410;2023-03-23T03:48:57;98634.13;;;14.82
69186;BMP280;56298;49.246;9.410;2023-03-23T03:51:24;98634.94;;;14.75
69186;BMP280;56298;49.246;9.410;2023-03-23T03:53:50;98631.75;;;14.80
69186;BMP280;56298;49.246;9.410;2023-03-23T03:56:15;98630.94;;;14.80
69186;BMP280;56298;49.246;9.410;2023-03-23T03:58:41;98628.16;;;14.84
69186;BMP280;56298;49.246;9.410;2023-03-23T04:01:08;98625.03;;;14.81
69186;BMP280;56298;49.246;9.410;2023-03-23T04:03:35;98636.44;;;14.87
69186;BMP280;56298;49.246;9.410;2023-03-23T04:06:00;98626.16;;;14.88
69186;BMP280;56298;49.246;9.410;2023-03-23T04:08:26;98637.19;;;14.91
69186;BMP280;56298;49.246;9.410;2023-03-23T04:10:52;98631.25;;;14.93
69186;BMP280;56298;49.246;9.410;2023-03-23T04:13:18;98640.41;;;14.86
69186;BMP280;56298;49.246;9.410;2023-03-23T04:15:44;98630.91;;;14.91
69186;BMP280;56298;49.246;9.410;2023-03-23T04:18:10;98633.63;;;14.94
69186;BMP280;56298;49.246;9.410;2023-03-23T04:20:35;98632.53;;;14.85
69186;BMP280;56298;49.246;9.410;2023-03-23T04:23:02;98639.97;;;14.91
69186;BMP280;56298;49.246;9.410;2023-03-23T04:25:28;98638.41;;;14.87
69186;BMP280;56298;49.246;9.410;2023-03-23T04:27:53;98638.81;;;14.89
69186;BMP280;56298;49.246;9.410;2023-03-23T04:30:21;98637.22;;;14.88
69186;BMP280;56298;49.246;9.410;2023-03-23T04:32:50;98632.44;;;14.92
69186;BMP280;56298;49.246;9.410;2023-03-23T04:35:18;98632.88;;;14.87
69186;BMP280;56298;49.246;9.410;2023-03-23T04:37:44;98625.41;;;14.87
69186;BMP280;56298;49.246;9.410;2023-03-23T04:40:13;98627.75;;;14.85
69186;BMP280;56298;49.246;9.410;2023-03-23T04:42:41;98619.06;;;14.90
69186;BMP280;56298;49.246;9.410;2023-03-23T04:45:12;98619.06;;;14.90
69186;BMP280;56298;49.246;9.410;2023-03-23T04:47:39;98626.56;;;14.90
69186;BMP280;56298;49.246;9.410;2023-03-23T04:50:11;98629.72;;;14.95
69186;BMP280;56298;49.246;9.410;2023-03-23T04:52:38;98624.13;;;15.03
69186;BMP280;56298;49.246;9.410;2023-03-23T04:55:06;98620.59;;;14.99
69186;BMP280;56298;49.246;9.410;2023-03-23T04:57:32;98632.44;;;14.99
69186;BMP280;56298;49.246;9.410;2023-03-23T04:59:59;98637.19;;;14.95
69186;BMP280;56298;49.246;9.410;2023-03-23T05:02:24;98636.78;;;14.96
69186;BMP280;56298;49.246;9.410;2023-03-23T05:04:50;98639.56;;;14.96
69186;BMP280;56298;49.246;9.410;2023-03-23T05:07:16;98633.25;;;14.92
69186;BMP280;56298;49.246;9.410;2023-03-23T05:09:41;98637.59;;;14.93
69186;BMP280;56298;49.246;9.410;2023-03-23T05:12:08;98638.38;;;14.90
69186;BMP280;56298;49.246;9.410;2023-03-23T05:14:34;98635.63;;;14.90
69186;BMP280;56298;49.246;9.410;2023-03-23T05:16:59;98641.97;;;14.84
69186;BMP280;56298;49.246;9.410;2023-03-23T05:19:25;98636.47;;;14.80
69186;BMP280;56298;49.246;9.410;2023-03-23T05:21:50;98638.06;;;14.85
69186;BMP280;56298;49.246;9.410;2023-03-23T05:24:15;98645.13;;;14.86
69186;BMP280;56298;49.246;9.410;2023-03-23T05:26:40;98645.91;;;14.86
69186;BMP280;56298;49.246;9.410;2023-03-23T05:29:06;98645.09;;;14.89
69186;BMP280;56298;49.246;9.410;2023-03-23T05:31:31;98649.75;;;15.00
69186;BMP280;56298;49.246;9.410;2023-03-23T05:33:57;98650.94;;;14.99
69186;BMP280;56298;49.246;9.410;2023-03-23T05:36:22;98647.75;;;15.04
69186;BMP280;56298;49.246;9.410;2023-03-23T05:38:48;98649.75;;;15.00
69186;BMP280;56298;49.246;9.410;2023-03-23T05:41:15;98647.81;;;15.00
69186;BMP280;56298;49.246;9.410;2023-03-23T05:43:40;98647.00;;;15.00
69186;BMP280;56298;49.246;9.410;2023-03-23T05:46:06;98650.94;;;15.02
69186;BMP280;56298;49.246;9.410;2023-03-23T05:48:32;98654.91;;;14.98
69186;BMP280;56298;49.246;9.410;2023-03-23T05:50:58;98650.19;;;14.94
69186;BMP280;56298;49.246;9.410;2023-03-23T05:53:23;98652.19;;;14.94
69186;BMP280;56298;49.246;9.410;2023-03-23T05:55:49;98658.47;;;14.98
69186;BMP280;56298;49.246;9.410;2023-03-23T05:58:14;98673.09;;;14.95
69186;BMP280;56298;49.246;9.410;2023-03-23T06:00:39;98681.38;;;14.91
69186;BMP280;56298;49.246;9.410;2023-03-23T06:03:05;98681.78;;;14.86
69186;BMP280;56298;49.246;9.410;2023-03-23T06:05:31;98684.47;;;14.97
69186;BMP280;56298;49.246;9.410;2023-03-23T06:10:26;98693.50;;;15.12
69186;BMP280;56298;49.246;9.410;2023-03-23T06:12:52;98703.00;;;15.07
69186;BMP280;56298;49.246;9.410;2023-03-23T06:15:18;98717.53;;;15.11
69186;BMP280;56298;49.246;9.410;2023-03-23T06:17:43;98723.53;;;15.03
69186;BMP280;56298;49.246;9.410;2023-03-23T06:20:09;98714.81;;;15.04
69186;BMP280;56298;49.246;9.410;2023-03-23T06:22:37;98726.63;;;15.12
69186;BMP280;56298;49.246;9.410;2023-03-23T06:25:04;98723.06;;;15.11
69186;BMP280;56298;49.246;9.410;2023-03-23T06:27:29;98719.09;;;15.16
69186;BMP280;56298;49.246;9.410;2023-03-23T06:29:55;98727.81;;;15.11
69186;BMP280;56298;49.246;9.410;2023-03-23T06:32:22;98730.97;;;15.13
69186;BMP280;56298;49.246;9.410;2023-03-23T06:34:48;98730.19;;;15.13
69186;BMP280;56298;49.246;9.410;2023-03-23T06:37:13;98738.47;;;15.13
69186;BMP280;56298;49.246;9.410;2023-03-23T06:39:38;98737.63;;;15.16
69186;BMP280;56298;49.246;9.410;2023-03-23T06:42:04;98745.47;;;15.28
69186;BMP280;56298;49.246;9.410;2023-03-23T06:44:30;98744.75;;;15.17
69186;BMP280;56298;49.246;9.410;2023-03-23T06:46:55;98748.22;;;15.32
69186;BMP280;56298;49.246;9.410;2023-03-23T06:49:21;98750.97;;;15.32
69186;BMP280;56298;49.246;9.410;2023-03-23T06:51:47;98746.66;;;15.31
69186;BMP280;56298;49.246;9.410;2023-03-23T06:54:12;98749.75;;;15.33
69186;BMP280;56298;49.246;9.410;2023-03-23T06:56:37;98754.13;;;15.34
69186;BMP280;56298;49.246;9.410;2023-03-23T06:59:03;98747.00;;;15.33
69186;BMP280;56298;49.246;9.410;2023-03-23T07:01:28;98752.97;;;15.28
69186;BMP280;56298;49.246;9.410;2023-03-23T07:03:54;98746.28;;;15.25
69186;BMP280;56298;49.246;9.410;2023-03-23T07:06:20;98751.03;;;15.17
69186;BMP280;56298;49.246;9.410;2023-03-23T07:08:46;98749.50;;;15.13
69186;BMP280;56298;49.246;9.410;2023-03-23T07:11:11;98752.72;;;15.07
69186;BMP280;56298;49.246;9.410;2023-03-23T07:13:37;98753.81;;;15.17
69186;BMP280;56298;49.246;9.410;2023-03-23T07:16:04;98761.31;;;15.17
69186;BMP280;56298;49.246;9.410;2023-03-23T07:18:31;98762.97;;;15.00
69186;BMP280;56298;49.246;9.410;2023-03-23T07:20:56;98762.94;;;15.07
69186;BMP280;56298;49.246;9.410;2023-03-23T07:23:21;98768.84;;;15.05
69186;BMP280;56298;49.246;9.410;2023-03-23T07:25:47;98769.66;;;14.99
69186;BMP280;56298;49.246;9.410;2023-03-23T07:28:13;98777.91;;;15.09
69186;BMP280;56298;49.246;9.410;2023-03-23T07:30:39;98778.34;;;14.97
69186;BMP280;56298;49.246;9.410;2023-03-23T07:33:06;98785.84;;;14.93
69186;BMP280;56298;49.246;9.410;2023-03-23T07:35:32;98785.47;;;14.94
69186;BMP280;56298;49.246;9.410;2023-03-23T07:37:58;98791.03;;;14.91
69186;BMP280;56298;49.246;9.410;2023-03-23T07:40:27;98781.50;;;14.99
69186;BMP280;56298;49.246;9.410;2023-03-23T07:42:54;98794.56;;;14.95
69186;BMP280;56298;49.246;9.410;2023-03-23T07:45:20;98801.19;;;15.12
69186;BMP280;56298;49.246;9.410;2023-03-23T07:47:46;98799.59;;;15.15
69186;BMP280;56298;49.246;9.410;2023-03-23T07:50:12;98811.81;;;15.17
69186;BMP280;56298;49.246;9.410;2023-03-23T07:52:37;98797.59;;;15.19
69186;BMP280;56298;49.246;9.410;2023-03-23T07:55:04;98796.38;;;15.31
69186;BMP280;56298;49.246;9.410;2023-03-23T07:57:30;98789.13;;;15.51
69186;BMP280;56298;49.246;9.410;2023-03-23T07:59:56;98798.91;;;15.71
69186;BMP280;56298;49.246;9.410;2023-03-23T08:02:22;98804.28;;;15.92
69186;BMP280;56298;49.246;9.410;2023-03-23T08:04:48;98815.78;;;16.33
69186;BMP280;56298;49.246;9.410;2023-03-23T08:07:14;98817.19;;;16.52
69186;BMP280;56298;49.246;9.410;2023-03-23T08:09:41;98815.28;;;16.83
69186;BMP280;56298;49.246;9.410;2023-03-23T08:12:06;98817.41;;;16.72
69186;BMP280;56298;49.246;9.410;2023-03-23T08:14:32;98829.03;;;16.56
69186;BMP280;56298;49.246;9.410;2023-03-23T08:16:57;98831.94;;;16.38
69186;BMP280;56298;49.246;9.410;2023-03-23T08:19:23;98831.84;;;16.07
69186;BMP280;56298;49.246;9.410;2023-03-23T08:21:49;98823.00;;;15.66
69186;BMP280;56298;49.246;9.410;2023-03-23T08:24:15;98832.19;;;15.49
69186;BMP280;56298;49.246;9.410;2023-03-23T08:26:40;98837.34;;;15.39
69186;BMP280;56298;49.246;9.410;2023-03-23T08:29:07;98842.44;;;15.52
69186;BMP280;56298;49.246;9.410;2023-03-23T08:31:32;98842.09;;;15.50
69186;BMP280;56298;49.246;9.410;2023-03-23T08:34:00;98842.91;;;15.36
69186;BMP280;56298;49.246;9.410;2023-03-23T08:36:26;98824.25;;;15.62
69186;BMP280;56298;49.246;9.410;2023-03-23T08:38:51;98841.97;;;15.64
69186;BMP280;56298;49.246;9.410;2023-03-23T08:41:17;98844.25;;;15.80
69186;BMP280;56298;49.246;9.410;2023-03-23T08:43:42;98849.78;;;15.80
69186;BMP280;56298;49.246;9.410;2023-03-23T08:46:09;98854.25;;;15.60
69186;BMP280;56298;49.246;9.410;2023-03-23T08:48:36;98855.88;;;15.46
69186;BMP280;56298;49.246;9.410;2023-03-23T08:51:03;98857.16;;;15.27
69186;BMP280;56298;49.246;9.410;2023-03-23T08:53:28;98846.09;;;15.38
69186;BMP280;56298;49.246;9.410;2023-03-23T08:56:06;98844.47;;;15.37
69186;BMP280;56298;49.246;9.410;2023-03-23T08:58:36;98847.25;;;15.41
69186;BMP280;56298;49.246;9.410;2023-03-23T09:01:03;98853.47;;;15.59
69186;BMP280;56298;49.246;9.410;2023-03-23T09:03:30;98850.28;;;15.61
69186;BMP280;56298;49.246;9.410;2023-03-23T09:05:59;98849.16;;;15.54
69186;BMP280;56298;49.246;9.410;2023-03-23T09:08:26;98849.03;;;15.69
69186;BMP280;56298;49.246;9.410;2023-03-23T09:10:53;98861.66;;;15.74
69186;BMP280;56298;49.246;9.410;2023-03-23T09:13:18;98851.84;;;15.65
69186;BMP280;56298;49.246;9.410;2023-03-23T09:15:44;98862.88;;;15.69
69186;BMP280;56298;49.246;9.410;2023-03-23T09:18:09;98864.09;;;15.64
69186;BMP280;56298;49.246;9.410;2023-03-23T09:20:35;98868.41;;;15.69
69186;BMP280;56298;49.246;9.410;2023-03-23T09:23:02;98868.03;;;15.67
69186;BMP280;56298;49.246;9.410;2023-03-23T09:25:27;98872.34;;;15.75
69186;BMP280;56298;49.246;9.410;2023-03-23T09:27:57;98870.00;;;15.66
69186;BMP280;56298;49.246;9.410;2023-03-23T09:30:26;98872.69;;;15.81
69186;BMP280;56298;49.246;9.410;2023-03-23T09:32:52;98864.69;;;15.97
69186;BMP280;56298;49.246;9.410;2023-03-23T09:35:17;98861.41;;;16.14
69186;BMP280;56298;49.246;9.410;2023-03-23T09:37:44;98877.16;;;16.24
69186;BMP280;56298;49.246;9.410;2023-03-23T09:40:13;98871.22;;;16.22
69186;BMP280;56298;49.246;9.410;2023-03-23T09:42:55;98866.94;;;16.14
69186;BMP280;56298;49.246;9.410;2023-03-23T09:45:27;98874.03;;;16.15
69186;BMP280;56298;49.246;9.410;2023-03-23T09:48:21;98872.09;;;16.11
69186;BMP280;56298;49.246;9.410;2023-03-23T09:53:32;98869.94;;;16.30
69186;BMP280;56298;49.246;9.410;2023-03-23T09:56:02;98881.13;;;16.23
69186;BMP280;56298;49.246;9.410;2023-03-23T10:01:24;98885.41;;;16.28
69186;BMP280;56298;49.246;9.410;2023-03-23T10:03:58;98892.00;;;16.41
69186;BMP280;56298;49.246;9.410;2023-03-23T10:06:25;98900.44;;;16.26
69186;BMP280;56298;49.246;9.410;2023-03-23T10:08:52;98896.50;;;16.24
69186;BMP280;56298;49.246;9.410;2023-03-23T10:11:28;98886.75;;;16.08
69186;BMP280;56298;49.246;9.410;2023-03-23T10:16:46;98907.31;;;16.04
69186;BMP280;56298;49.246;9.410;2023-03-23T10:20:15;98914.13;;;15.88
69186;BMP280;56298;49.246;9.410;2023-03-23T10:22:29;98915.56;;;16.07
69186;BMP280;56298;49.246;9.410;2023-03-23T10:35:50;98935.31;;;16.66
69186;BMP280;56298;49.246;9.410;2023-03-23T10:38:26;98920.44;;;16.91
69186;BMP280;56298;49.246;9.410;2023-03-23T10:40:57;98918.75;;;16.62
69186;BMP280;56298;49.246;9.410;2023-03-23T10:43:24;98928.63;;;16.60
69186;BMP280;56298;49.246;9.410;2023-03-23T10:45:56;98928.28;;;16.54
69186;BMP280;56298;49.246;9.410;2023-03-23T10:48:27;98929.28;;;16.75
69186;BMP280;56298;49.246;9.410;2023-03-23T10:50:56;98922.00;;;16.92
69186;BMP280;56298;49.246;9.410;2023-03-23T10:53:29;98924.59;;;16.72
69186;BMP280;56298;49.246;9.410;2023-03-23T10:55:57;98922.50;;;16.37
69186;BMP280;56298;49.246;9.410;2023-03-23T10:58:26;98932.81;;;16.79
69186;BMP280;56298;49.246;9.410;2023-03-23T11:00:54;98931.97;;;16.86
69186;BMP280;56298;49.246;9.410;2023-03-23T11:03:24;98931.22;;;16.81
69186;BMP280;56298;49.246;9.410;2023-03-23T11:05:56;98927.34;;;16.72
69186;BMP280;56298;49.246;9.410;2023-03-23T11:08:27;98916.06;;;16.48
69186;BMP280;56298;49.246;9.410;2023-03-23T11:13:46;98914.66;;;16.25
69186;BMP280;56298;49.246;9.410;2023-03-23T11:16:30;98910.53;;;16.90
69186;BMP280;56298;49.246;9.410;2023-03-23T11:19:00;98916.69;;;17.47
69186;BMP280;56298;49.246;9.410;2023-03-23T11:21:37;98914.94;;;17.88
69186;BMP280;56298;49.246;9.410;2023-03-23T11:24:03;98910.47;;;17.66
69186;BMP280;56298;49.246;9.410;2023-03-23T11:26:34;98906.03;;;17.41
69186;BMP280;56298;49.246;9.410;2023-03-23T11:29:19;98898.91;;;17.40
69186;BMP280;56298;49.246;9.410;2023-03-23T11:31:49;98901.66;;;17.09
69186;BMP280;56298;49.246;9.410;2023-03-23T11:34:21;98901.25;;;17.07
69186;BMP280;56298;49.246;9.410;2023-03-23T11:39:31;98914.50;;;17.31
69186;BMP280;56298;49.246;9.410;2023-03-23T11:41:58;98906.56;;;17.29
69186;BMP280;56298;49.246;9.410;2023-03-23T11:44:34;98900.94;;;17.95
69186;BMP280;56298;49.246;9.410;2023-03-23T11:48:03;98909.25;;;17.95
69186;BMP280;56298;49.246;9.410;2023-03-23T11:55:19;98926.75;;;16.95
69186;BMP280;56298;49.246;9.410;2023-03-23T11:57:46;98918.69;;;16.66
69186;BMP280;56298;49.246;9.410;2023-03-23T12:00:20;98925.25;;;16.83
69186;BMP280;56298;49.246;9.410;2023-03-23T12:02:59;98932.81;;;16.79
69186;BMP280;56298;49.246;9.410;2023-03-23T12:05:37;98933.25;;;16.77
69186;BMP280;56298;49.246;9.410;2023-03-23T12:08:30;98942.22;;;16.89
69186;BMP280;56298;49.246;9.410;2023-03-23T12:11:55;98932.50;;;16.69
69186;BMP280;56298;49.246;9.410;2023-03-23T12:14:12;98941.25;;;17.06
69186;BMP280;56298;49.246;9.410;2023-03-23T12:20:12;98944.19;;;17.26
69186;BMP280;56298;49.246;9.410;2023-03-23T12:25:56;98940.09;;;17.04
69186;BMP280;56298;49.246;9.410;2023-03-23T12:31:18;98932.00;;;17.20
69186;BMP280;56298;49.246;9.410;2023-03-23T12:33:53;98915.75;;;17.22
69186;BMP280;56298;49.246;9.410;2023-03-23T12:44:49;98908.81;;;16.65
69186;BMP280;56298;49.246;9.410;2023-03-23T12:47:42;98892.25;;;16.61
69186;BMP280;56298;49.246;9.410;2023-03-23T12:52:55;98909.09;;;16.78
69186;BMP280;56298;49.246;9.410;2023-03-23T12:58:00;98903.63;;;16.71
69186;BMP280;56298;49.246;9.410;2023-03-23T13:00:56;98905.53;;;16.74
69186;BMP280;56298;49.246;9.410;2023-03-23T13:03:33;98903.09;;;16.83
69186;BMP280;56298;49.246;9.410;2023-03-23T13:08:53;98885.59;;;16.90
69186;BMP280;56298;49.246;9.410;2023-03-23T13:11:24;98887.75;;;16.78
69186;BMP280;56298;49.246;9.410;2023-03-23T13:13:55;98881.31;;;16.85
69186;BMP280;56298;49.246;9.410;2023-03-23T13:19:11;98870.97;;;16.93
69186;BMP280;56298;49.246;9.410;2023-03-23T13:21:44;98871.41;;;16.88
69186;BMP280;56298;49.246;9.410;2023-03-23T13:24:18;98863.06;;;16.91
69186;BMP280;56298;49.246;9.410;2023-03-23T13:26:46;98859.22;;;17.16
69186;BMP280;56298;49.246;9.410;2023-03-23T13:29:17;98850.19;;;17.08
69186;BMP280;56298;49.246;9.410;2023-03-23T13:31:44;98863.56;;;17.17
69186;BMP280;56298;49.246;9.410;2023-03-23T13:36:43;98857.66;;;17.46
69186;BMP280;56298;49.246;9.410;2023-03-23T13:39:28;98856.09;;;17.45
69186;BMP280;56298;49.246;9.410;2023-03-23T13:44:42;98846.31;;;17.37
69186;BMP280;56298;49.246;9.410;2023-03-23T13:49:59;98827.63;;;17.41
69186;BMP280;56298;49.246;9.410;2023-03-23T13:57:58;98819.38;;;17.65
69186;BMP280;56298;49.246;9.410;2023-03-23T14:00:45;98802.31;;;17.66
69186;BMP280;56298;49.246;9.410;2023-03-23T14:06:05;98801.06;;;17.95
69186;BMP280;56298;49.246;9.410;2023-03-23T14:10:59;98809.69;;;18.24
69186;BMP280;56298;49.246;9.410;2023-03-23T14:16:23;98819.25;;;18.43
69186;BMP280;56298;49.246;9.410;2023-03-23T14:19:22;98816.47;;;18.64
69186;BMP280;56298;49.246;9.410;2023-03-23T14:21:55;98816.34;;;18.51
69186;BMP280;56298;49.246;9.410;2023-03-23T14:24:23;98820.41;;;18.46
69186;BMP280;56298;49.246;9.410;2023-03-23T14:26:50;98816.44;;;18.23
69186;BMP280;56298;49.246;9.410;2023-03-23T14:29:18;98814.00;;;18.05
69186;BMP280;56298;49.246;9.410;2023-03-23T14:31:50;98816.94;;;17.94
69186;BMP280;56298;49.246;9.410;2023-03-23T14:34:19;98803.91;;;17.91
69186;BMP280;56298;49.246;9.410;2023-03-23T14:36:44;98815.72;;;17.71
69186;BMP280;56298;49.246;9.410;2023-03-23T14:39:29;98817.66;;;17.75
69186;BMP280;56298;49.246;9.410;2023-03-23T14:42:01;98818.97;;;17.66
69186;BMP280;56298;49.246;9.410;2023-03-23T14:44:31;98818.00;;;17.77
69186;BMP280;56298;49.246;9.410;2023-03-23T14:47:02;98821.19;;;17.75
69186;BMP280;56298;49.246;9.410;2023-03-23T14:49:39;98822.84;;;17.73
69186;BMP280;56298;49.246;9.410;2023-03-23T14:52:13;98819.56;;;17.78
69186;BMP280;56298;49.246;9.410;2023-03-23T14:54:39;98815.75;;;17.68
69186;BMP280;56298;49.246;9.410;2023-03-23T14:57:27;98819.53;;;17.54
69186;BMP280;56298;49.246;9.410;2023-03-23T14:59:53;98820.53;;;17.40
69186;BMP280;56298;49.246;9.410;2023-03-23T15:04:57;98816.59;;;17.37
69186;BMP280;56298;49.246;9.410;2023-03-23T15:07:26;98818.94;;;17.39
69186;BMP280;56298;49.246;9.410;2023-03-23T15:09:52;98812.78;;;17.55
69186;BMP280;56298;49.246;9.410;2023-03-23T15:12:23;98811.34;;;17.47
69186;BMP280;56298;49.246;9.410;2023-03-23T15:14:54;98815.19;;;17.22
69186;BMP280;56298;49.246;9.410;2023-03-23T15:17:23;98812.41;;;17.22
69186;BMP280;56298;49.246;9.410;2023-03-23T15:19:50;98809.31;;;17.20
69186;BMP280;56298;49.246;9.410;2023-03-23T15:22:21;98811.94;;;17.27
69186;BMP280;56298;49.246;9.410;2023-03-23T15:24:47;98811.28;;;17.19
69186;BMP280;56298;49.246;9.410;2023-03-23T15:27:29;98816.09;;;17.15
69186;BMP280;56298;49.246;9.410;2023-03-23T15:29:57;98815.78;;;17.09
69186;BMP280;56298;49.246;9.410;2023-03-23T15:32:39;98807.13;;;17.04
69186;BMP280;56298;49.246;9.410;2023-03-23T15:35:12;98811.94;;;17.00
69186;BMP280;56298;49.246;9.410;2023-03-23T15:37:42;98805.16;;;17.01
69186;BMP280;56298;49.246;9.410;2023-03-23T15:40:20;98804.84;;;16.98
69186;BMP280;56298;49.246;9.410;2023-03-23T15:42:46;98808.75;;;17.01
69186;BMP280;56298;49.246;9.410;2023-03-23T15:47:38;98810.50;;;16.88
69186;BMP280;56298;49.246;9.410;2023-03-23T15:52:53;98818.28;;;16.96
69186;BMP280;56298;49.246;9.410;2023-03-23T15:55:25;98816.25;;;17.01
69186;BMP280;56298;49.246;9.410;2023-03-23T15:57:52;98815.50;;;17.00
69186;BMP280;56298;49.246;9.410;2023-03-23T16:00:19;98800.78;;;17.07
69186;BMP280;56298;49.246;9.410;2023-03-23T16:02:46;98812.88;;;17.17
69186;BMP280;56298;49.246;9.410;2023-03-23T16:05:13;98808.50;;;17.19
69186;BMP280;56298;49.246;9.410;2023-03-23T16:07:38;98807.88;;;17.08
69186;BMP280;56298;49.246;9.410;2023-03-23T16:10:05;98817.66;;;17.16